Time;durP1;ratioP1;P1;durP2;ratioP2;P2;SDS_P1;SDS_P2;PMS_P1;PMS_P2;Temp;Humidity;BMP_temperature;BMP_pressure;BME280_temperature;BME280_humidity;BME280_pressure;Samples;Min_cycle;Max_cycle;Signal;HPM_P1;HPM_P2
2021/01/14 00:02:39;;;;;;;0.47;0.40;;;;;;;;;;10398746;28;20209;-72
2021/01/14 00:07:41;;;;;;;0.50;0.50;;;;;;;;;;10404681;28;20224;-69
2021/01/14 00:12:43;;;;;;;1.03;0.80;;;;;;;;;;10402133;28;20210;-70
2021/01/14 00:17:45;;;;;;;0.90;0.30;;;;;;;;;;10402236;28;20623;-71
2021/01/14 00:22:47;;;;;;;1.23;0.80;;;;;;;;;;10402497;28;20198;-72
2021/01/14 00:27:50;;;;;;;0.70;0.70;;;;;;;;;;10398626;28;20723;-71
2021/01/14 00:32:51;;;;;;;0.90;0.70;;;;;;;;;;10405099;28;20235;-69
2021/01/14 00:37:54;;;;;;;0.33;0.27;;;;;;;;;;10393392;28;20604;-71
2021/01/14 00:42:56;;;;;;;1.53;1.10;;;;;;;;;;10402715;28;20202;-70
2021/01/14 00:47:58;;;;;;;0.30;0.27;;;;;;;;;;10410217;28;20234;-71
2021/01/14 00:53:03;;;;;;;1.17;0.83;;;;;;;;;;10400669;28;20191;-71
2021/01/14 00:58:05;;;;;;;0.47;0.47;;;;;;;;;;10383791;28;20323;-69
2021/01/14 01:03:06;;;;;;;0.40;0.40;;;;;;;;;;10400606;28;20206;-70
2021/01/14 01:08:09;;;;;;;1.00;0.90;;;;;;;;;;10403635;28;20669;-71
2021/01/14 01:13:10;;;;;;;1.43;0.90;;;;;;;;;;10399406;28;20201;-71
2021/01/14 01:18:12;;;;;;;1.30;0.83;;;;;;;;;;10403388;28;20229;-70
2021/01/14 01:23:15;;;;;;;1.87;1.00;;;;;;;;;;10402413;28;20186;-70
2021/01/14 01:28:16;;;;;;;1.20;1.00;;;;;;;;;;10380979;28;20214;-71
2021/01/14 01:33:18;;;;;;;2.27;1.13;;;;;;;;;;10398644;28;20264;-71
2021/01/14 01:38:20;;;;;;;0.90;0.80;;;;;;;;;;10403671;28;20244;-70
2021/01/14 01:43:22;;;;;;;0.80;0.50;;;;;;;;;;10400227;28;20256;-69
2021/01/14 01:48:24;;;;;;;4.50;1.90;;;;;;;;;;10391616;28;20213;-71
2021/01/14 01:53:26;;;;;;;1.90;1.20;;;;;;;;;;10386579;28;20197;-71
2021/01/14 01:58:32;;;;;;;1.87;1.30;;;;;;;;;;10411169;28;20237;-72
2021/01/14 02:03:33;;;;;;;1.57;1.03;;;;;;;;;;10385452;28;20720;-72
2021/01/14 02:08:40;;;;;;;3.03;1.90;;;;;;;;;;10409127;28;20682;-71
2021/01/14 02:13:46;;;;;;;2.20;1.27;;;;;;;;;;10405827;28;20225;-69
2021/01/14 02:18:47;;;;;;;3.47;1.83;;;;;;;;;;10390006;28;20652;-70
2021/01/14 02:23:54;;;;;;;1.73;0.93;;;;;;;;;;10405515;28;20320;-70
2021/01/14 02:28:58;;;;;;;1.77;1.10;;;;;;;;;;10404103;28;20655;-71
2021/01/14 02:33:59;;;;;;;2.37;1.43;;;;;;;;;;10406167;28;20281;-70
2021/01/14 02:39:04;;;;;;;3.67;1.70;;;;;;;;;;10409232;28;20236;-68
2021/01/14 02:44:07;;;;;;;3.27;1.87;;;;;;;;;;10403155;28;20185;-70
2021/01/14 02:49:09;;;;;;;2.53;1.43;;;;;;;;;;10400737;28;20245;-69
2021/01/14 02:54:11;;;;;;;2.53;1.37;;;;;;;;;;10406344;28;20674;-70
2021/01/14 02:59:14;;;;;;;1.00;0.77;;;;;;;;;;10405794;28;20788;-70
2021/01/14 03:04:15;;;;;;;2.63;1.63;;;;;;;;;;10405231;28;20216;-71
2021/01/14 03:09:17;;;;;;;1.03;0.67;;;;;;;;;;10407646;28;20309;-69
2021/01/14 03:14:19;;;;;;;1.80;1.07;;;;;;;;;;10386841;28;20217;-69
2021/01/14 03:19:21;;;;;;;1.63;0.97;;;;;;;;;;10407470;28;20645;-71
2021/01/14 03:24:22;;;;;;;4.80;1.90;;;;;;;;;;10389636;28;20193;-70
2021/01/14 03:29:25;;;;;;;2.70;1.50;;;;;;;;;;10402301;28;20210;-70
2021/01/14 03:34:26;;;;;;;4.20;1.90;;;;;;;;;;10388318;28;20414;-70
2021/01/14 03:39:29;;;;;;;3.47;1.43;;;;;;;;;;10404620;28;20225;-70
2021/01/14 03:44:31;;;;;;;3.37;1.70;;;;;;;;;;10404078;28;20194;-71
2021/01/14 03:49:32;;;;;;;2.93;1.53;;;;;;;;;;10401927;28;20249;-70
2021/01/14 03:54:34;;;;;;;0.97;0.77;;;;;;;;;;10401484;28;20210;-69
2021/01/14 03:59:36;;;;;;;3.40;1.60;;;;;;;;;;10406846;28;20922;-69
2021/01/14 04:04:38;;;;;;;5.27;2.50;;;;;;;;;;10406127;28;20244;-70
2021/01/14 04:09:40;;;;;;;4.53;1.87;;;;;;;;;;10410260;28;20221;-70
2021/01/14 04:14:50;;;;;;;3.67;1.70;;;;;;;;;;10403191;28;20241;-70
2021/01/14 04:19:51;;;;;;;3.57;2.13;;;;;;;;;;10403205;28;20286;-70
2021/01/14 04:25:01;;;;;;;2.23;1.20;;;;;;;;;;10401018;28;20248;-72
2021/01/14 04:30:06;;;;;;;3.63;1.93;;;;;;;;;;10401650;28;20217;-71
2021/01/14 04:35:08;;;;;;;3.23;1.57;;;;;;;;;;10403630;28;20646;-70
2021/01/14 04:40:10;;;;;;;3.27;1.83;;;;;;;;;;10399556;28;20504;-71
2021/01/14 04:45:13;;;;;;;6.00;2.73;;;;;;;;;;10402689;28;20241;-71
2021/01/14 04:50:17;;;;;;;6.20;2.53;;;;;;;;;;10396667;28;20625;-72
2021/01/14 04:55:21;;;;;;;2.07;0.87;;;;;;;;;;10399700;28;20281;-70
2021/01/14 05:00:25;;;;;;;3.77;1.63;;;;;;;;;;10400371;28;20726;-73
2021/01/14 05:05:30;;;;;;;1.60;1.00;;;;;;;;;;10400553;28;20276;-70
2021/01/14 05:10:33;;;;;;;7.23;3.50;;;;;;;;;;10383267;28;20316;-70
2021/01/14 05:15:37;;;;;;;7.00;3.40;;;;;;;;;;10405151;28;20798;-70
2021/01/14 05:20:39;;;;;;;7.63;3.77;;;;;;;;;;10393675;28;20210;-70
2021/01/14 05:25:44;;;;;;;6.87;3.43;;;;;;;;;;10403724;28;20399;-70
2021/01/14 05:30:47;;;;;;;4.37;2.07;;;;;;;;;;10408510;28;20257;-71
2021/01/14 05:35:49;;;;;;;5.93;3.10;;;;;;;;;;10410189;28;20368;-70
2021/01/14 05:46:15;;;;;;;3.30;1.40;;;;;;;;;;10410681;28;20196;-70
2021/01/14 05:51:21;;;;;;;5.53;2.83;;;;;;;;;;10387110;28;20297;-72
2021/01/14 05:56:36;;;;;;;3.57;1.77;;;;;;;;;;10384822;28;20217;-71
2021/01/14 06:01:51;;;;;;;5.57;2.23;;;;;;;;;;10412663;28;20220;-70
2021/01/14 06:06:54;;;;;;;4.03;1.80;;;;;;;;;;10390278;28;20267;-70
2021/01/14 06:12:06;;;;;;;5.73;2.70;;;;;;;;;;10411240;28;20486;-70
2021/01/14 06:17:09;;;;;;;1.77;1.03;;;;;;;;;;10411162;28;20304;-70
2021/01/14 06:22:15;;;;;;;5.93;2.83;;;;;;;;;;10388049;28;20256;-71
2021/01/14 06:27:16;;;;;;;4.07;1.60;;;;;;;;;;10389535;28;20248;-69
2021/01/14 06:32:19;;;;;;;7.03;2.90;;;;;;;;;;10380152;28;20332;-70
2021/01/14 06:37:22;;;;;;;5.63;3.07;;;;;;;;;;10412852;28;20219;-70
2021/01/14 06:42:24;;;;;;;9.47;3.77;;;;;;;;;;10408155;28;20274;-72
2021/01/14 06:47:31;;;;;;;4.07;2.03;;;;;;;;;;10402430;28;20268;-69
2021/01/14 06:52:33;;;;;;;5.10;2.57;;;;;;;;;;10404657;28;20205;-71
2021/01/14 06:57:36;;;;;;;2.47;1.10;;;;;;;;;;10408151;28;20221;-70
2021/01/14 07:02:53;;;;;;;4.27;1.63;;;;;;;;;;10409098;28;20213;-71
2021/01/14 07:08:11;;;;;;;7.20;3.77;;;;;;;;;;10399715;28;20317;-72
2021/01/14 07:13:13;;;;;;;7.83;3.63;;;;;;;;;;10414858;28;20620;-69
2021/01/14 07:18:18;;;;;;;7.80;3.50;;;;;;;;;;10390393;28;20559;-70
2021/01/14 07:23:21;;;;;;;8.83;4.27;;;;;;;;;;10371771;28;20203;-71
2021/01/14 07:28:23;;;;;;;9.03;3.93;;;;;;;;;;10410069;28;20221;-71
2021/01/14 07:33:28;;;;;;;9.30;3.87;;;;;;;;;;10404851;28;20198;-71
2021/01/14 07:38:45;;;;;;;5.30;2.37;;;;;;;;;;10381031;28;20217;-70
2021/01/14 07:43:47;;;;;;;6.53;3.30;;;;;;;;;;10400300;28;20205;-71
2021/01/14 07:48:51;;;;;;;8.83;3.80;;;;;;;;;;10399686;28;20272;-70
2021/01/14 07:54:06;;;;;;;9.13;3.77;;;;;;;;;;10405558;28;20242;-71
2021/01/14 07:59:10;;;;;;;8.30;3.33;;;;;;;;;;10399646;28;20646;-71
2021/01/14 08:04:22;;;;;;;7.53;3.03;;;;;;;;;;10398642;28;20394;-70
2021/01/14 08:09:24;;;;;;;9.43;4.77;;;;;;;;;;10400829;28;20279;-71
2021/01/14 08:14:35;;;;;;;10.60;4.63;;;;;;;;;;10383391;28;20566;-70
2021/01/14 08:19:39;;;;;;;6.50;3.67;;;;;;;;;;10378933;28;20226;-69
2021/01/14 08:24:42;;;;;;;5.43;3.20;;;;;;;;;;10401502;28;20194;-69
2021/01/14 08:29:48;;;;;;;6.83;2.60;;;;;;;;;;10392312;28;20781;-70
2021/01/14 08:34:52;;;;;;;7.53;3.43;;;;;;;;;;10379743;28;20683;-68
2021/01/14 08:39:57;;;;;;;8.23;3.43;;;;;;;;;;10404496;28;20221;-69
2021/01/14 08:45:03;;;;;;;7.80;3.80;;;;;;;;;;10399540;28;20256;-70
2021/01/14 08:50:06;;;;;;;8.47;3.50;;;;;;;;;;10377718;28;20203;-69
2021/01/14 08:55:08;;;;;;;6.57;2.00;;;;;;;;;;10397457;28;20630;-69
2021/01/14 09:00:10;;;;;;;9.37;4.00;;;;;;;;;;10405588;28;20209;-70
2021/01/14 09:05:14;;;;;;;7.30;3.30;;;;;;;;;;10405317;28;20182;-71
2021/01/14 09:10:15;;;;;;;7.70;3.30;;;;;;;;;;10414619;28;20233;-70
2021/01/14 09:15:24;;;;;;;7.43;3.40;;;;;;;;;;10407929;28;20214;-72
2021/01/14 09:20:29;;;;;;;5.50;2.67;;;;;;;;;;10412363;28;20315;-70
2021/01/14 09:25:31;;;;;;;7.83;3.30;;;;;;;;;;10404926;28;20185;-69
2021/01/14 09:30:33;;;;;;;9.00;3.70;;;;;;;;;;10410946;28;20244;-70
2021/01/14 09:35:36;;;;;;;10.20;4.37;;;;;;;;;;10394289;28;20546;-72
2021/01/14 09:40:38;;;;;;;8.90;4.17;;;;;;;;;;10389922;28;20304;-72
2021/01/14 09:45:39;;;;;;;10.43;4.00;;;;;;;;;;10382487;28;20234;-72
2021/01/14 09:50:42;;;;;;;9.57;4.33;;;;;;;;;;10400474;28;20308;-72
2021/01/14 09:55:43;;;;;;;9.13;4.30;;;;;;;;;;10409515;28;20213;-72
2021/01/14 10:00:46;;;;;;;8.47;3.80;;;;;;;;;;10405717;28;20578;-73
2021/01/14 10:05:50;;;;;;;9.93;4.33;;;;;;;;;;10402111;28;20212;-73
2021/01/14 10:10:51;;;;;;;8.80;3.90;;;;;;;;;;10404744;28;20221;-71
2021/01/14 10:16:08;;;;;;;8.73;3.80;;;;;;;;;;10409936;28;20213;-73
2021/01/14 10:21:13;;;;;;;8.07;4.17;;;;;;;;;;10390884;28;20276;-71
2021/01/14 10:26:24;;;;;;;6.77;3.47;;;;;;;;;;10404955;28;20600;-74
2021/01/14 10:31:32;;;;;;;9.37;4.17;;;;;;;;;;10405225;28;20259;-72
2021/01/14 10:36:45;;;;;;;7.13;3.57;;;;;;;;;;10387794;28;20309;-71
2021/01/14 10:41:47;;;;;;;8.73;3.90;;;;;;;;;;10411014;28;20602;-73
2021/01/14 10:46:51;;;;;;;8.63;3.53;;;;;;;;;;10389149;28;21692;-71
2021/01/14 10:51:53;;;;;;;8.10;3.27;;;;;;;;;;10401650;28;20198;-72
2021/01/14 10:56:55;;;;;;;8.80;3.83;;;;;;;;;;10403984;28;20245;-72
2021/01/14 11:02:04;;;;;;;10.03;4.30;;;;;;;;;;10405763;28;20205;-73
2021/01/14 11:07:13;;;;;;;9.63;4.00;;;;;;;;;;10403984;28;20217;-73
2021/01/14 11:12:14;;;;;;;9.93;4.03;;;;;;;;;;10405077;28;20564;-72
2021/01/14 11:17:31;;;;;;;10.30;3.97;;;;;;;;;;10408297;28;20224;-71
2021/01/14 11:22:38;;;;;;;8.90;3.50;;;;;;;;;;10409716;28;20205;-72
2021/01/14 11:27:40;;;;;;;7.90;2.57;;;;;;;;;;10405765;28;20692;-72
2021/01/14 11:32:42;;;;;;;10.93;3.93;;;;;;;;;;10407911;28;20312;-71
2021/01/14 11:37:45;;;;;;;7.63;2.73;;;;;;;;;;10405949;28;20649;-71
2021/01/14 11:42:46;;;;;;;6.93;2.70;;;;;;;;;;10407686;28;20252;-72
2021/01/14 11:47:48;;;;;;;4.00;1.90;;;;;;;;;;10405621;28;20214;-72
2021/01/14 11:52:50;;;;;;;3.53;1.60;;;;;;;;;;10403558;28;20193;-72
2021/01/14 11:57:52;;;;;;;1.97;1.30;;;;;;;;;;10402293;28;20218;-72
2021/01/14 12:02:53;;;;;;;4.07;1.70;;;;;;;;;;10406385;28;20288;-71
2021/01/14 12:07:56;;;;;;;3.60;1.50;;;;;;;;;;10413045;28;20287;-71
2021/01/14 12:12:57;;;;;;;4.17;1.70;;;;;;;;;;10408520;28;20198;-71
2021/01/14 12:18:03;;;;;;;4.77;1.90;;;;;;;;;;10391761;28;20252;-71
2021/01/14 12:23:06;;;;;;;2.73;1.10;;;;;;;;;;10390147;28;20818;-71
2021/01/14 12:28:07;;;;;;;3.57;1.50;;;;;;;;;;10398787;28;20202;-72
2021/01/14 12:33:09;;;;;;;1.70;1.00;;;;;;;;;;10409940;28;20212;-71
2021/01/14 12:38:11;;;;;;;3.63;1.43;;;;;;;;;;10403587;28;20243;-70
2021/01/14 12:43:13;;;;;;;2.83;1.33;;;;;;;;;;10391824;28;20193;-70
2021/01/14 12:48:14;;;;;;;3.63;1.20;;;;;;;;;;10400975;28;20244;-72
2021/01/14 12:53:17;;;;;;;1.70;1.00;;;;;;;;;;10389159;28;20264;-71
2021/01/14 12:58:18;;;;;;;2.23;0.90;;;;;;;;;;10404624;28;20228;-72
2021/01/14 13:03:20;;;;;;;3.07;1.27;;;;;;;;;;10397986;28;20233;-73
2021/01/14 13:08:22;;;;;;;1.67;0.57;;;;;;;;;;10409022;28;20221;-72
2021/01/14 13:13:24;;;;;;;2.47;1.20;;;;;;;;;;10395210;28;20572;-72
2021/01/14 13:18:26;;;;;;;4.50;1.63;;;;;;;;;;10390538;28;20241;-72
2021/01/14 13:23:28;;;;;;;2.57;1.23;;;;;;;;;;10411756;28;20194;-71
2021/01/14 13:28:30;;;;;;;3.80;1.70;;;;;;;;;;10411716;28;20289;-72
2021/01/14 13:33:31;;;;;;;2.80;1.27;;;;;;;;;;10407904;28;20193;-71
2021/01/14 13:38:34;;;;;;;1.67;1.00;;;;;;;;;;10417581;28;20218;-72
2021/01/14 13:43:36;;;;;;;4.37;1.60;;;;;;;;;;10390401;28;20544;-72
2021/01/14 13:48:38;;;;;;;2.00;1.37;;;;;;;;;;10385198;28;20238;-73
2021/01/14 13:53:40;;;;;;;2.53;1.33;;;;;;;;;;10397830;28;20281;-73
2021/01/14 13:58:42;;;;;;;3.83;1.50;;;;;;;;;;10412439;28;20221;-72
2021/01/14 14:03:44;;;;;;;2.87;1.00;;;;;;;;;;10423566;28;20197;-74
2021/01/14 14:08:53;;;;;;;3.53;1.50;;;;;;;;;;10409654;28;20214;-72
2021/01/14 14:13:55;;;;;;;1.37;0.63;;;;;;;;;;10399168;28;20228;-73
2021/01/14 14:18:58;;;;;;;2.40;1.30;;;;;;;;;;10409420;28;20228;-73
2021/01/14 14:24:04;;;;;;;2.27;1.07;;;;;;;;;;10408106;28;20712;-73
2021/01/14 14:29:06;;;;;;;3.43;1.60;;;;;;;;;;10397861;28;20258;-75
2021/01/14 14:34:08;;;;;;;3.87;1.57;;;;;;;;;;10411968;28;20917;-74
2021/01/14 14:39:11;;;;;;;3.20;1.57;;;;;;;;;;10408987;28;20664;-72
2021/01/14 14:44:12;;;;;;;2.80;1.50;;;;;;;;;;10391608;28;20288;-73
2021/01/14 14:49:15;;;;;;;2.67;1.50;;;;;;;;;;10412095;28;20218;-72
2021/01/14 14:54:17;;;;;;;3.93;1.60;;;;;;;;;;10406034;28;20201;-72
2021/01/14 14:59:19;;;;;;;3.03;1.60;;;;;;;;;;10391820;28;20304;-72
2021/01/14 15:04:21;;;;;;;3.13;1.53;;;;;;;;;;10386176;28;20225;-73
2021/01/14 15:09:24;;;;;;;3.77;2.10;;;;;;;;;;10406247;28;20226;-73
2021/01/14 15:14:26;;;;;;;4.83;2.00;;;;;;;;;;10406051;28;20198;-73
2021/01/14 15:19:27;;;;;;;5.40;1.87;;;;;;;;;;10404019;28;20213;-71
2021/01/14 15:24:30;;;;;;;3.13;1.77;;;;;;;;;;10387143;28;20197;-72
2021/01/14 15:29:32;;;;;;;4.07;1.97;;;;;;;;;;10419036;28;20214;-73
2021/01/14 15:34:33;;;;;;;4.37;2.03;;;;;;;;;;10420453;28;20256;-72
2021/01/14 15:39:36;;;;;;;3.70;1.80;;;;;;;;;;10418082;28;20283;-73
2021/01/14 15:44:37;;;;;;;3.47;1.63;;;;;;;;;;10418153;28;20277;-72
2021/01/14 15:49:39;;;;;;;5.80;1.90;;;;;;;;;;10422983;28;20650;-72
2021/01/14 15:54:42;;;;;;;4.37;1.90;;;;;;;;;;10425911;28;20609;-70
2021/01/14 15:59:45;;;;;;;3.43;1.90;;;;;;;;;;10404179;28;20217;-72
2021/01/14 16:04:47;;;;;;;6.10;2.17;;;;;;;;;;10424498;28;20198;-72
2021/01/14 16:09:50;;;;;;;4.77;1.97;;;;;;;;;;10399898;28;20209;-72
2021/01/14 16:14:52;;;;;;;6.73;2.90;;;;;;;;;;10407570;28;20244;-72
2021/01/14 16:19:53;;;;;;;7.53;2.60;;;;;;;;;;10412363;28;20221;-72
2021/01/14 16:24:56;;;;;;;6.90;2.47;;;;;;;;;;10406334;28;20565;-74
2021/01/14 16:29:57;;;;;;;5.67;2.10;;;;;;;;;;10404330;28;20229;-73
2021/01/14 16:34:59;;;;;;;6.43;2.57;;;;;;;;;;10385498;28;20263;-72
2021/01/14 16:40:04;;;;;;;5.60;2.50;;;;;;;;;;10402281;28;20225;-71
2021/01/14 16:45:06;;;;;;;6.00;2.70;;;;;;;;;;10386107;28;20623;-73
2021/01/14 16:50:08;;;;;;;5.63;2.63;;;;;;;;;;10388554;28;20305;-73
2021/01/14 16:55:11;;;;;;;8.50;3.40;;;;;;;;;;10405727;28;20534;-73
2021/01/14 17:00:14;;;;;;;6.00;2.93;;;;;;;;;;10409609;28;20213;-73
2021/01/14 17:05:16;;;;;;;7.17;3.03;;;;;;;;;;10400767;28;20260;-73
2021/01/14 17:10:18;;;;;;;6.33;3.20;;;;;;;;;;10383973;28;20320;-72
2021/01/14 17:15:20;;;;;;;7.07;3.20;;;;;;;;;;10396783;28;20194;-72
2021/01/14 17:20:22;;;;;;;8.80;3.70;;;;;;;;;;10404460;28;20292;-71
2021/01/14 17:25:24;;;;;;;9.30;3.80;;;;;;;;;;10402324;28;20535;-72
2021/01/14 17:30:26;;;;;;;7.70;3.60;;;;;;;;;;10412457;28;20201;-73
2021/01/14 17:35:28;;;;;;;8.23;3.73;;;;;;;;;;10424380;28;20204;-75
2021/01/14 17:40:36;;;;;;;7.10;3.20;;;;;;;;;;10412545;28;20276;-73
2021/01/14 17:45:38;;;;;;;10.23;4.00;;;;;;;;;;10430433;28;20328;-71
2021/01/14 17:50:39;;;;;;;7.03;3.67;;;;;;;;;;10422652;28;20275;-74
2021/01/14 17:55:49;;;;;;;8.93;3.83;;;;;;;;;;10442776;28;20205;-73
2021/01/14 18:00:57;;;;;;;8.77;4.10;;;;;;;;;;10415263;28;20224;-73
2021/01/14 18:06:03;;;;;;;9.07;4.37;;;;;;;;;;10413623;28;20206;-72
2021/01/14 18:11:06;;;;;;;8.37;3.80;;;;;;;;;;10410185;28;20566;-73
2021/01/14 18:16:07;;;;;;;8.37;3.80;;;;;;;;;;10387226;28;20602;-71
2021/01/14 18:21:09;;;;;;;9.90;4.13;;;;;;;;;;10408071;28;20228;-72
2021/01/14 18:26:12;;;;;;;10.67;4.47;;;;;;;;;;10396964;28;20269;-74
2021/01/14 18:31:17;;;;;;;10.20;4.43;;;;;;;;;;10418472;28;20221;-74
2021/01/14 18:36:27;;;;;;;10.50;5.13;;;;;;;;;;10412138;28;20217;-72
2021/01/14 18:41:30;;;;;;;11.43;4.63;;;;;;;;;;10420700;28;20270;-73
2021/01/14 18:46:32;;;;;;;11.57;5.30;;;;;;;;;;10415237;28;20185;-72
2021/01/14 18:51:35;;;;;;;11.73;5.17;;;;;;;;;;10399572;28;20217;-73
2021/01/14 18:56:38;;;;;;;9.97;4.67;;;;;;;;;;10391971;28;20633;-72
2021/01/14 19:01:42;;;;;;;10.53;5.17;;;;;;;;;;10385103;28;20200;-73
2021/01/14 19:06:44;;;;;;;12.17;5.90;;;;;;;;;;10401335;28;20595;-72
2021/01/14 19:11:46;;;;;;;12.93;6.13;;;;;;;;;;10388181;28;20288;-73
2021/01/14 19:16:49;;;;;;;15.03;6.23;;;;;;;;;;10389112;28;20283;-73
2021/01/14 19:21:50;;;;;;;13.97;6.57;;;;;;;;;;10399537;28;20218;-73
2021/01/14 19:26:55;;;;;;;12.00;6.70;;;;;;;;;;10409861;28;20303;-73
2021/01/14 19:31:57;;;;;;;13.37;6.97;;;;;;;;;;10401585;28;20217;-73
2021/01/14 19:37:03;;;;;;;12.07;6.97;;;;;;;;;;10410750;28;20217;-73
2021/01/14 19:42:11;;;;;;;15.27;7.53;;;;;;;;;;10398755;28;20198;-74
2021/01/14 19:47:12;;;;;;;14.53;7.90;;;;;;;;;;10389532;28;20206;-74
2021/01/14 19:52:14;;;;;;;17.43;8.67;;;;;;;;;;10405556;28;20198;-73
2021/01/14 19:57:17;;;;;;;15.63;8.27;;;;;;;;;;10409771;28;20218;-73
2021/01/14 20:02:18;;;;;;;14.80;7.77;;;;;;;;;;10408797;28;20245;-73
2021/01/14 20:07:20;;;;;;;13.40;5.93;;;;;;;;;;10409203;28;20764;-71
2021/01/14 20:12:22;;;;;;;15.17;7.13;;;;;;;;;;10398438;28;20274;-71
2021/01/14 20:17:24;;;;;;;18.07;8.03;;;;;;;;;;10402910;28;20296;-71
2021/01/14 20:22:28;;;;;;;15.43;7.83;;;;;;;;;;10409948;28;20194;-71
2021/01/14 20:27:31;;;;;;;14.10;7.23;;;;;;;;;;10404260;28;20213;-72
2021/01/14 20:32:32;;;;;;;15.67;7.70;;;;;;;;;;10403969;28;20217;-73
2021/01/14 20:37:37;;;;;;;12.67;5.70;;;;;;;;;;10412756;28;20678;-71
2021/01/14 20:42:59;;;;;;;11.93;6.53;;;;;;;;;;10421966;28;20598;-72
2021/01/14 20:48:11;;;;;;;9.67;5.60;;;;;;;;;;10405639;28;20299;-73
2021/01/14 20:53:13;;;;;;;12.43;7.30;;;;;;;;;;10407601;28;20232;-71
2021/01/14 20:58:16;;;;;;;10.13;5.53;;;;;;;;;;10388977;28;20236;-70
2021/01/14 21:03:18;;;;;;;10.17;5.23;;;;;;;;;;10407573;28;20193;-71
2021/01/14 21:08:20;;;;;;;11.57;5.50;;;;;;;;;;10403314;28;20292;-71
2021/01/14 21:13:22;;;;;;;10.87;5.40;;;;;;;;;;10387138;28;20570;-71
2021/01/14 21:18:24;;;;;;;10.67;5.90;;;;;;;;;;10387377;28;20263;-72
2021/01/14 21:23:26;;;;;;;11.87;5.80;;;;;;;;;;10401517;28;20189;-72
2021/01/14 21:28:28;;;;;;;11.07;5.00;;;;;;;;;;10390661;28;20694;-72
2021/01/14 21:33:30;;;;;;;10.27;5.10;;;;;;;;;;10401144;28;20190;-72
2021/01/14 21:38:33;;;;;;;10.77;6.30;;;;;;;;;;10403422;28;20222;-73
2021/01/14 21:43:35;;;;;;;12.43;6.63;;;;;;;;;;10401843;28;20609;-72
2021/01/14 21:48:37;;;;;;;12.37;5.80;;;;;;;;;;10406502;28;20328;-73
2021/01/14 21:53:40;;;;;;;12.57;6.27;;;;;;;;;;10405470;28;20210;-73
2021/01/14 21:58:43;;;;;;;13.23;6.63;;;;;;;;;;10399890;28;20258;-72
2021/01/14 22:03:44;;;;;;;11.63;6.40;;;;;;;;;;10422754;28;20201;-71
2021/01/14 22:08:46;;;;;;;12.77;6.67;;;;;;;;;;10398735;28;20763;-72
2021/01/14 22:13:48;;;;;;;12.50;6.70;;;;;;;;;;10415384;28;20229;-72
2021/01/14 22:18:50;;;;;;;11.77;5.97;;;;;;;;;;10414112;28;20312;-72
2021/01/14 22:23:55;;;;;;;12.00;6.60;;;;;;;;;;10413186;28;20613;-72
2021/01/14 22:28:57;;;;;;;12.60;6.70;;;;;;;;;;10412431;28;20316;-73
2021/01/14 22:33:59;;;;;;;12.17;5.23;;;;;;;;;;10410711;28;20193;-72
2021/01/14 22:39:04;;;;;;;13.00;5.67;;;;;;;;;;10409143;28;20251;-73
2021/01/14 22:44:07;;;;;;;11.40;5.17;;;;;;;;;;10403131;28;20198;-71
2021/01/14 22:49:09;;;;;;;14.03;7.20;;;;;;;;;;10381085;28;20218;-73
2021/01/14 22:54:12;;;;;;;12.40;5.80;;;;;;;;;;10407593;28;20597;-71
2021/01/14 22:59:14;;;;;;;12.87;6.53;;;;;;;;;;10408082;28;20238;-71
2021/01/14 23:04:17;;;;;;;12.93;6.43;;;;;;;;;;10408562;28;20292;-72
2021/01/14 23:09:20;;;;;;;14.43;7.50;;;;;;;;;;10392962;28;20237;-71
2021/01/14 23:14:22;;;;;;;7.80;3.53;;;;;;;;;;10405623;28;20243;-72
2021/01/14 23:19:24;;;;;;;12.37;6.70;;;;;;;;;;10405720;28;20326;-70
2021/01/14 23:24:25;;;;;;;12.50;6.77;;;;;;;;;;10400957;28;20193;-71
2021/01/14 23:29:28;;;;;;;14.80;7.90;;;;;;;;;;10384977;28;20296;-71
2021/01/14 23:34:29;;;;;;;15.60;7.90;;;;;;;;;;10402176;28;20795;-72
2021/01/14 23:39:32;;;;;;;13.60;6.77;;;;;;;;;;10400007;28;20214;-71
2021/01/14 23:44:34;;;;;;;13.63;6.97;;;;;;;;;;10405691;28;20626;-72
2021/01/14 23:49:36;;;;;;;15.13;7.57;;;;;;;;;;10393765;28;20213;-73
2021/01/14 23:54:38;;;;;;;12.80;6.77;;;;;;;;;;10405648;28;20737;-73
2021/01/14 23:59:40;;;;;;;14.13;7.33;;;;;;;;;;10404745;28;20582;-73
